sensor_id;sensor_type;location;lat;lon;timestamp;temperature;humidity
56044;DHT22;41912;51.022;3.664;2023-02-12T00:01:41;9.10;99.90
56044;DHT22;41912;51.022;3.664;2023-02-12T00:04:07;9.00;99.90
56044;DHT22;41912;51.022;3.664;2023-02-12T00:06:32;9.00;99.90
56044;DHT22;41912;51.022;3.664;2023-02-12T00:08:58;9.00;99.90
56044;DHT22;41912;51.022;3.664;2023-02-12T00:11:26;9.10;99.90
56044;DHT22;41912;51.022;3.664;2023-02-12T00:13:53;9.10;99.90
56044;DHT22;41912;51.022;3.664;2023-02-12T00:16:22;9.10;99.90
56044;DHT22;41912;51.022;3.664;2023-02-12T00:18:51;9.10;99.90
56044;DHT22;41912;51.022;3.664;2023-02-12T00:21:17;9.10;99.90
56044;DHT22;41912;51.022;3.664;2023-02-12T00:23:43;9.10;99.90
56044;DHT22;41912;51.022;3.664;2023-02-12T00:26:13;9.00;99.90
56044;DHT22;41912;51.022;3.664;2023-02-12T00:28:39;9.10;99.90
56044;DHT22;41912;51.022;3.664;2023-02-12T00:31:11;9.10;99.90
56044;DHT22;41912;51.022;3.664;2023-02-12T00:33:37;9.00;99.90
56044;DHT22;41912;51.022;3.664;2023-02-12T00:36:04;9.00;99.90
56044;DHT22;41912;51.022;3.664;2023-02-12T00:38:30;9.00;99.90
56044;DHT22;41912;51.022;3.664;2023-02-12T00:40:56;9.00;99.90
56044;DHT22;41912;51.022;3.664;2023-02-12T00:43:21;9.00;99.90
56044;DHT22;41912;51.022;3.664;2023-02-12T00:45:47;9.00;99.90
56044;DHT22;41912;51.022;3.664;2023-02-12T00:48:13;9.00;99.90
56044;DHT22;41912;51.022;3.664;2023-02-12T00:50:39;9.10;99.90
56044;DHT22;41912;51.022;3.664;2023-02-12T00:53:07;9.00;99.90
56044;DHT22;41912;51.022;3.664;2023-02-12T00:55:33;9.10;99.90
56044;DHT22;41912;51.022;3.664;2023-02-12T00:57:59;8.90;99.90
56044;DHT22;41912;51.022;3.664;2023-02-12T01:00:25;9.10;99.90
56044;DHT22;41912;51.022;3.664;2023-02-12T01:02:51;9.00;99.90
56044;DHT22;41912;51.022;3.664;2023-02-12T01:05:17;9.00;99.90
56044;DHT22;41912;51.022;3.664;2023-02-12T01:07:48;9.00;99.90
56044;DHT22;41912;51.022;3.664;2023-02-12T01:10:13;9.00;99.90
56044;DHT22;41912;51.022;3.664;2023-02-12T01:12:39;9.00;99.90
56044;DHT22;41912;51.022;3.664;2023-02-12T01:15:05;9.00;99.90
56044;DHT22;41912;51.022;3.664;2023-02-12T01:17:31;9.00;99.90
56044;DHT22;41912;51.022;3.664;2023-02-12T01:19:57;9.00;99.90
56044;DHT22;41912;51.022;3.664;2023-02-12T01:22:23;9.00;99.90
56044;DHT22;41912;51.022;3.664;2023-02-12T01:24:49;9.00;99.90
56044;DHT22;41912;51.022;3.664;2023-02-12T01:27:15;9.10;99.90
56044;DHT22;41912;51.022;3.664;2023-02-12T01:29:41;9.00;99.90
56044;DHT22;41912;51.022;3.664;2023-02-12T01:32:09;9.00;99.90
56044;DHT22;41912;51.022;3.664;2023-02-12T01:34:36;9.00;99.90
56044;DHT22;41912;51.022;3.664;2023-02-12T01:37:02;9.00;99.90
56044;DHT22;41912;51.022;3.664;2023-02-12T01:39:27;9.00;99.90
56044;DHT22;41912;51.022;3.664;2023-02-12T01:41:53;9.00;99.90
56044;DHT22;41912;51.022;3.664;2023-02-12T01:44:23;8.90;99.90
56044;DHT22;41912;51.022;3.664;2023-02-12T01:47:01;9.00;99.90
56044;DHT22;41912;51.022;3.664;2023-02-12T01:49:37;9.00;99.90
56044;DHT22;41912;51.022;3.664;2023-02-12T01:52:13;8.90;99.90
56044;DHT22;41912;51.022;3.664;2023-02-12T01:54:40;8.90;99.90
56044;DHT22;41912;51.022;3.664;2023-02-12T01:59:33;8.90;99.90
56044;DHT22;41912;51.022;3.664;2023-02-12T02:01:59;8.90;99.90
56044;DHT22;41912;51.022;3.664;2023-02-12T02:04:32;8.90;99.90
56044;DHT22;41912;51.022;3.664;2023-02-12T02:07:02;8.90;99.90
56044;DHT22;41912;51.022;3.664;2023-02-12T02:09:30;8.90;99.90
56044;DHT22;41912;51.022;3.664;2023-02-12T02:11:57;8.90;99.90
56044;DHT22;41912;51.022;3.664;2023-02-12T02:14:42;8.90;99.90
56044;DHT22;41912;51.022;3.664;2023-02-12T02:17:12;8.90;99.90
56044;DHT22;41912;51.022;3.664;2023-02-12T02:30:38;8.90;99.90
56044;DHT22;41912;51.022;3.664;2023-02-12T02:38:38;8.90;99.90
56044;DHT22;41912;51.022;3.664;2023-02-12T02:41:16;8.90;99.90
56044;DHT22;41912;51.022;3.664;2023-02-12T02:43:48;8.90;99.90
56044;DHT22;41912;51.022;3.664;2023-02-12T02:46:20;8.90;99.90
56044;DHT22;41912;51.022;3.664;2023-02-12T02:48:51;8.90;99.90
56044;DHT22;41912;51.022;3.664;2023-02-12T02:51:21;8.90;99.90
56044;DHT22;41912;51.022;3.664;2023-02-12T02:53:52;8.80;99.90
56044;DHT22;41912;51.022;3.664;2023-02-12T02:56:22;8.80;99.90
56044;DHT22;41912;51.022;3.664;2023-02-12T03:01:21;8.80;99.90
56044;DHT22;41912;51.022;3.664;2023-02-12T03:04:01;8.80;99.90
56044;DHT22;41912;51.022;3.664;2023-02-12T03:06:39;8.80;99.90
56044;DHT22;41912;51.022;3.664;2023-02-12T03:11:45;8.80;99.90
56044;DHT22;41912;51.022;3.664;2023-02-12T03:14:19;8.80;99.90
56044;DHT22;41912;51.022;3.664;2023-02-12T03:19:28;8.80;99.90
56044;DHT22;41912;51.022;3.664;2023-02-12T03:29:30;8.70;99.90
56044;DHT22;41912;51.022;3.664;2023-02-12T03:34:54;8.80;99.90
56044;DHT22;41912;51.022;3.664;2023-02-12T03:37:32;8.70;99.90
56044;DHT22;41912;51.022;3.664;2023-02-12T03:42:44;8.70;99.90
56044;DHT22;41912;51.022;3.664;2023-02-12T03:51:00;8.70;99.90
56044;DHT22;41912;51.022;3.664;2023-02-12T03:53:29;8.70;99.90
56044;DHT22;41912;51.022;3.664;2023-02-12T03:56:01;8.70;99.90
56044;DHT22;41912;51.022;3.664;2023-02-12T03:58:29;8.70;99.90
56044;DHT22;41912;51.022;3.664;2023-02-12T04:00:56;8.70;99.90
56044;DHT22;41912;51.022;3.664;2023-02-12T04:03:23;8.70;99.90
56044;DHT22;41912;51.022;3.664;2023-02-12T04:05:49;8.70;99.90
56044;DHT22;41912;51.022;3.664;2023-02-12T04:08:15;8.70;99.90
56044;DHT22;41912;51.022;3.664;2023-02-12T04:10:43;8.70;99.90
56044;DHT22;41912;51.022;3.664;2023-02-12T04:13:32;8.70;99.90
56044;DHT22;41912;51.022;3.664;2023-02-12T04:18:59;8.60;99.90
56044;DHT22;41912;51.022;3.664;2023-02-12T04:27:15;8.60;99.90
56044;DHT22;41912;51.022;3.664;2023-02-12T04:29:54;8.60;99.90
56044;DHT22;41912;51.022;3.664;2023-02-12T04:32:29;8.60;99.90
56044;DHT22;41912;51.022;3.664;2023-02-12T04:37:42;8.60;99.90
56044;DHT22;41912;51.022;3.664;2023-02-12T04:40:12;8.60;99.90
56044;DHT22;41912;51.022;3.664;2023-02-12T04:42:43;8.50;99.90
56044;DHT22;41912;51.022;3.664;2023-02-12T04:45:11;8.60;99.90
56044;DHT22;41912;51.022;3.664;2023-02-12T04:47:37;8.60;99.90
56044;DHT22;41912;51.022;3.664;2023-02-12T04:50:03;8.60;99.90
56044;DHT22;41912;51.022;3.664;2023-02-12T04:52:29;8.60;99.90
56044;DHT22;41912;51.022;3.664;2023-02-12T04:54:54;8.60;99.90
56044;DHT22;41912;51.022;3.664;2023-02-12T04:57:20;8.50;99.90
56044;DHT22;41912;51.022;3.664;2023-02-12T04:59:46;8.50;99.90
56044;DHT22;41912;51.022;3.664;2023-02-12T05:02:11;8.40;99.90
56044;DHT22;41912;51.022;3.664;2023-02-12T05:04:37;8.50;99.90
56044;DHT22;41912;51.022;3.664;2023-02-12T05:07:02;8.50;99.90
56044;DHT22;41912;51.022;3.664;2023-02-12T05:09:28;8.60;99.90
56044;DHT22;41912;51.022;3.664;2023-02-12T05:11:54;8.50;99.90
56044;DHT22;41912;51.022;3.664;2023-02-12T05:14:19;8.60;99.90
56044;DHT22;41912;51.022;3.664;2023-02-12T05:16:45;8.50;99.90
56044;DHT22;41912;51.022;3.664;2023-02-12T05:19:10;8.50;99.90
56044;DHT22;41912;51.022;3.664;2023-02-12T05:21:37;8.50;99.90
56044;DHT22;41912;51.022;3.664;2023-02-12T05:24:03;8.50;99.90
56044;DHT22;41912;51.022;3.664;2023-02-12T05:26:29;8.50;99.90
56044;DHT22;41912;51.022;3.664;2023-02-12T05:28:55;8.60;99.90
56044;DHT22;41912;51.022;3.664;2023-02-12T05:31:20;8.50;99.90
56044;DHT22;41912;51.022;3.664;2023-02-12T05:33:47;8.50;99.90
56044;DHT22;41912;51.022;3.664;2023-02-12T05:36:19;8.50;99.90
56044;DHT22;41912;51.022;3.664;2023-02-12T05:38:45;8.70;99.90
56044;DHT22;41912;51.022;3.664;2023-02-12T05:41:19;8.50;99.90
56044;DHT22;41912;51.022;3.664;2023-02-12T05:43:45;8.50;99.90
56044;DHT22;41912;51.022;3.664;2023-02-12T05:46:11;8.40;99.90
56044;DHT22;41912;51.022;3.664;2023-02-12T05:48:38;8.50;99.90
56044;DHT22;41912;51.022;3.664;2023-02-12T05:51:10;8.40;99.90
56044;DHT22;41912;51.022;3.664;2023-02-12T05:53:37;8.40;99.90
56044;DHT22;41912;51.022;3.664;2023-02-12T05:56:16;8.40;99.90
56044;DHT22;41912;51.022;3.664;2023-02-12T05:58:44;8.40;99.90
56044;DHT22;41912;51.022;3.664;2023-02-12T06:01:16;8.40;99.90
56044;DHT22;41912;51.022;3.664;2023-02-12T06:04:05;8.40;99.90
56044;DHT22;41912;51.022;3.664;2023-02-12T06:06:33;8.40;99.90
56044;DHT22;41912;51.022;3.664;2023-02-12T06:08:59;8.40;99.90
56044;DHT22;41912;51.022;3.664;2023-02-12T06:11:25;8.50;99.90
56044;DHT22;41912;51.022;3.664;2023-02-12T06:13:54;8.40;99.90
56044;DHT22;41912;51.022;3.664;2023-02-12T06:16:25;8.40;99.90
56044;DHT22;41912;51.022;3.664;2023-02-12T06:18:52;8.40;99.90
56044;DHT22;41912;51.022;3.664;2023-02-12T06:21:19;8.40;99.90
56044;DHT22;41912;51.022;3.664;2023-02-12T06:23:46;8.40;99.90
56044;DHT22;41912;51.022;3.664;2023-02-12T06:26:12;8.40;99.90
56044;DHT22;41912;51.022;3.664;2023-02-12T06:28:38;8.40;99.90
56044;DHT22;41912;51.022;3.664;2023-02-12T06:31:04;8.40;99.90
56044;DHT22;41912;51.022;3.664;2023-02-12T06:33:29;8.40;99.90
56044;DHT22;41912;51.022;3.664;2023-02-12T06:35:55;8.40;99.90
56044;DHT22;41912;51.022;3.664;2023-02-12T06:38:21;8.40;99.90
56044;DHT22;41912;51.022;3.664;2023-02-12T06:40:46;8.40;99.90
56044;DHT22;41912;51.022;3.664;2023-02-12T06:43:12;8.40;99.90
56044;DHT22;41912;51.022;3.664;2023-02-12T06:45:38;8.40;99.90
56044;DHT22;41912;51.022;3.664;2023-02-12T06:48:03;8.30;99.90
56044;DHT22;41912;51.022;3.664;2023-02-12T06:50:29;8.30;99.90
56044;DHT22;41912;51.022;3.664;2023-02-12T06:53:00;8.40;99.90
56044;DHT22;41912;51.022;3.664;2023-02-12T06:55:25;8.40;99.90
56044;DHT22;41912;51.022;3.664;2023-02-12T06:57:51;8.40;99.90
56044;DHT22;41912;51.022;3.664;2023-02-12T07:00:17;8.40;99.90
56044;DHT22;41912;51.022;3.664;2023-02-12T07:02:43;8.30;99.90
56044;DHT22;41912;51.022;3.664;2023-02-12T07:05:08;8.30;99.90
56044;DHT22;41912;51.022;3.664;2023-02-12T07:07:34;8.30;99.90
56044;DHT22;41912;51.022;3.664;2023-02-12T07:10:00;8.40;99.90
56044;DHT22;41912;51.022;3.664;2023-02-12T07:12:26;8.40;99.90
56044;DHT22;41912;51.022;3.664;2023-02-12T07:14:51;8.30;99.90
56044;DHT22;41912;51.022;3.664;2023-02-12T07:17:17;8.40;99.90
56044;DHT22;41912;51.022;3.664;2023-02-12T07:19:42;8.40;99.90
56044;DHT22;41912;51.022;3.664;2023-02-12T07:22:08;8.30;99.90
56044;DHT22;41912;51.022;3.664;2023-02-12T07:24:34;8.40;99.90
56044;DHT22;41912;51.022;3.664;2023-02-12T07:26:59;8.40;99.90
56044;DHT22;41912;51.022;3.664;2023-02-12T07:29:25;8.30;99.90
56044;DHT22;41912;51.022;3.664;2023-02-12T07:31:50;8.40;99.90
56044;DHT22;41912;51.022;3.664;2023-02-12T07:34:25;8.40;99.90
56044;DHT22;41912;51.022;3.664;2023-02-12T07:36:51;8.40;99.90
56044;DHT22;41912;51.022;3.664;2023-02-12T07:39:16;8.40;99.90
56044;DHT22;41912;51.022;3.664;2023-02-12T07:41:42;8.30;99.90
56044;DHT22;41912;51.022;3.664;2023-02-12T07:44:10;8.40;99.90
56044;DHT22;41912;51.022;3.664;2023-02-12T07:46:41;8.40;99.90
56044;DHT22;41912;51.022;3.664;2023-02-12T07:49:12;8.40;99.90
56044;DHT22;41912;51.022;3.664;2023-02-12T07:51:38;8.40;99.90
56044;DHT22;41912;51.022;3.664;2023-02-12T07:54:04;8.40;99.90
56044;DHT22;41912;51.022;3.664;2023-02-12T07:56:32;8.40;99.90
56044;DHT22;41912;51.022;3.664;2023-02-12T07:59:03;8.40;99.90
56044;DHT22;41912;51.022;3.664;2023-02-12T08:01:36;8.40;99.90
56044;DHT22;41912;51.022;3.664;2023-02-12T08:04:14;8.40;99.90
56044;DHT22;41912;51.022;3.664;2023-02-12T08:09:07;8.40;99.90
56044;DHT22;41912;51.022;3.664;2023-02-12T08:11:35;8.40;99.90
56044;DHT22;41912;51.022;3.664;2023-02-12T08:14:02;8.40;99.90
56044;DHT22;41912;51.022;3.664;2023-02-12T08:16:28;8.40;99.90
56044;DHT22;41912;51.022;3.664;2023-02-12T08:18:55;8.40;99.90
56044;DHT22;41912;51.022;3.664;2023-02-12T08:21:26;8.40;99.90
56044;DHT22;41912;51.022;3.664;2023-02-12T08:23:54;8.40;99.90
56044;DHT22;41912;51.022;3.664;2023-02-12T08:26:29;8.40;99.90
56044;DHT22;41912;51.022;3.664;2023-02-12T08:28:59;8.40;99.90
56044;DHT22;41912;51.022;3.664;2023-02-12T08:31:32;8.50;99.90
56044;DHT22;41912;51.022;3.664;2023-02-12T08:33:58;8.50;99.90
56044;DHT22;41912;51.022;3.664;2023-02-12T08:36:26;8.40;99.90
56044;DHT22;41912;51.022;3.664;2023-02-12T08:38:58;8.50;99.90
56044;DHT22;41912;51.022;3.664;2023-02-12T08:41:27;8.50;99.90
56044;DHT22;41912;51.022;3.664;2023-02-12T08:43:58;8.50;99.90
56044;DHT22;41912;51.022;3.664;2023-02-12T08:46:28;8.50;99.90
56044;DHT22;41912;51.022;3.664;2023-02-12T08:49:00;8.50;99.90
56044;DHT22;41912;51.022;3.664;2023-02-12T08:51:31;8.60;99.90
56044;DHT22;41912;51.022;3.664;2023-02-12T08:54:00;8.50;99.90
56044;DHT22;41912;51.022;3.664;2023-02-12T08:56:27;8.60;99.90
56044;DHT22;41912;51.022;3.664;2023-02-12T08:58:58;8.60;99.90
56044;DHT22;41912;51.022;3.664;2023-02-12T09:01:27;8.50;99.90
56044;DHT22;41912;51.022;3.664;2023-02-12T09:03:53;8.60;99.90
56044;DHT22;41912;51.022;3.664;2023-02-12T09:06:21;8.60;99.90
56044;DHT22;41912;51.022;3.664;2023-02-12T09:08:47;8.60;99.90
56044;DHT22;41912;51.022;3.664;2023-02-12T09:11:16;8.60;99.90
56044;DHT22;41912;51.022;3.664;2023-02-12T09:13:43;8.60;99.90
56044;DHT22;41912;51.022;3.664;2023-02-12T09:16:09;8.70;99.90
56044;DHT22;41912;51.022;3.664;2023-02-12T09:18:36;8.60;99.90
56044;DHT22;41912;51.022;3.664;2023-02-12T09:21:05;8.70;99.90
56044;DHT22;41912;51.022;3.664;2023-02-12T09:23:31;8.70;99.90
56044;DHT22;41912;51.022;3.664;2023-02-12T09:25:56;8.70;99.90
56044;DHT22;41912;51.022;3.664;2023-02-12T09:28:22;8.70;99.90
56044;DHT22;41912;51.022;3.664;2023-02-12T09:30:48;8.80;99.90
56044;DHT22;41912;51.022;3.664;2023-02-12T09:33:14;8.80;99.90
56044;DHT22;41912;51.022;3.664;2023-02-12T09:38:08;8.80;99.90
56044;DHT22;41912;51.022;3.664;2023-02-12T09:56:58;8.90;99.90
56044;DHT22;41912;51.022;3.664;2023-02-12T09:59:34;9.00;99.90
56044;DHT22;41912;51.022;3.664;2023-02-12T10:02:02;9.00;99.90
56044;DHT22;41912;51.022;3.664;2023-02-12T10:04:28;9.10;99.90
56044;DHT22;41912;51.022;3.664;2023-02-12T10:07:36;9.10;99.90
56044;DHT22;41912;51.022;3.664;2023-02-12T10:15:45;9.10;99.90
56044;DHT22;41912;51.022;3.664;2023-02-12T10:21:55;9.10;99.90
56044;DHT22;41912;51.022;3.664;2023-02-12T10:24:23;9.20;99.90
56044;DHT22;41912;51.022;3.664;2023-02-12T10:29:40;9.20;99.90
56044;DHT22;41912;51.022;3.664;2023-02-12T10:32:26;9.20;99.90
56044;DHT22;41912;51.022;3.664;2023-02-12T10:34:52;9.30;99.90
56044;DHT22;41912;51.022;3.664;2023-02-12T10:37:25;9.30;99.90
56044;DHT22;41912;51.022;3.664;2023-02-12T10:39:57;9.40;99.90
56044;DHT22;41912;51.022;3.664;2023-02-12T10:42:44;9.30;99.90
56044;DHT22;41912;51.022;3.664;2023-02-12T10:45:14;9.40;99.90
56044;DHT22;41912;51.022;3.664;2023-02-12T10:47:41;9.30;99.90
56044;DHT22;41912;51.022;3.664;2023-02-12T10:50:28;9.40;99.90
56044;DHT22;41912;51.022;3.664;2023-02-12T10:53:01;9.40;99.90
56044;DHT22;41912;51.022;3.664;2023-02-12T10:55:32;9.40;99.90
56044;DHT22;41912;51.022;3.664;2023-02-12T10:57:59;9.40;99.90
56044;DHT22;41912;51.022;3.664;2023-02-12T11:00:32;9.40;99.90
56044;DHT22;41912;51.022;3.664;2023-02-12T11:03:19;9.50;99.90
56044;DHT22;41912;51.022;3.664;2023-02-12T11:05:44;9.50;99.90
56044;DHT22;41912;51.022;3.664;2023-02-12T11:08:32;9.50;99.90
56044;DHT22;41912;51.022;3.664;2023-02-12T11:11:19;9.30;99.90
56044;DHT22;41912;51.022;3.664;2023-02-12T11:13:53;9.50;99.90
56044;DHT22;41912;51.022;3.664;2023-02-12T11:16:39;9.50;99.90
56044;DHT22;41912;51.022;3.664;2023-02-12T11:19:29;9.50;99.90
56044;DHT22;41912;51.022;3.664;2023-02-12T11:22:25;9.60;99.90
56044;DHT22;41912;51.022;3.664;2023-02-12T11:24:59;9.60;99.90
56044;DHT22;41912;51.022;3.664;2023-02-12T11:27:29;9.60;99.90
56044;DHT22;41912;51.022;3.664;2023-02-12T11:30:15;9.60;99.90
56044;DHT22;41912;51.022;3.664;2023-02-12T11:32:42;9.70;99.90
56044;DHT22;41912;51.022;3.664;2023-02-12T11:35:20;9.70;99.90
56044;DHT22;41912;51.022;3.664;2023-02-12T11:37:55;9.70;99.90
56044;DHT22;41912;51.022;3.664;2023-02-12T11:40:25;9.70;99.90
56044;DHT22;41912;51.022;3.664;2023-02-12T11:43:03;9.70;99.90
56044;DHT22;41912;51.022;3.664;2023-02-12T11:45:52;9.70;99.90
56044;DHT22;41912;51.022;3.664;2023-02-12T11:48:32;9.70;99.90
56044;DHT22;41912;51.022;3.664;2023-02-12T11:51:02;9.80;99.90
56044;DHT22;41912;51.022;3.664;2023-02-12T11:53:29;9.80;99.90
56044;DHT22;41912;51.022;3.664;2023-02-12T11:56:02;9.80;99.90
56044;DHT22;41912;51.022;3.664;2023-02-12T11:58:29;9.80;99.90
56044;DHT22;41912;51.022;3.664;2023-02-12T12:09:09;9.90;99.90
56044;DHT22;41912;51.022;3.664;2023-02-12T12:14:23;10.00;99.90
56044;DHT22;41912;51.022;3.664;2023-02-12T12:17:02;10.00;99.90
56044;DHT22;41912;51.022;3.664;2023-02-12T12:19:55;10.00;99.90
56044;DHT22;41912;51.022;3.664;2023-02-12T12:22:37;10.00;99.90
56044;DHT22;41912;51.022;3.664;2023-02-12T12:25:26;10.00;99.90
56044;DHT22;41912;51.022;3.664;2023-02-12T12:28:09;10.10;99.90
56044;DHT22;41912;51.022;3.664;2023-02-12T12:30:52;10.10;99.90
56044;DHT22;41912;51.022;3.664;2023-02-12T12:34:12;10.20;99.90
56044;DHT22;41912;51.022;3.664;2023-02-12T12:39:17;10.20;99.90
56044;DHT22;41912;51.022;3.664;2023-02-12T12:44:55;10.20;99.90
56044;DHT22;41912;51.022;3.664;2023-02-12T13:12:41;10.50;99.90
56044;DHT22;41912;51.022;3.664;2023-02-12T13:17:54;10.50;99.90
56044;DHT22;41912;51.022;3.664;2023-02-12T13:25:54;10.60;99.90
56044;DHT22;41912;51.022;3.664;2023-02-12T13:28:46;10.60;99.90
56044;DHT22;41912;51.022;3.664;2023-02-12T13:34:01;10.60;99.90
56044;DHT22;41912;51.022;3.664;2023-02-12T13:36:28;10.60;99.90
56044;DHT22;41912;51.022;3.664;2023-02-12T13:47:12;10.70;99.90
56044;DHT22;41912;51.022;3.664;2023-02-12T13:49:49;10.70;99.90
56044;DHT22;41912;51.022;3.664;2023-02-12T13:52:57;10.70;99.90
56044;DHT22;41912;51.022;3.664;2023-02-12T13:55:25;10.70;99.90
56044;DHT22;41912;51.022;3.664;2023-02-12T14:01:02;10.70;99.90
56044;DHT22;41912;51.022;3.664;2023-02-12T14:03:29;10.70;99.90
56044;DHT22;41912;51.022;3.664;2023-02-12T14:06:16;10.70;99.90
56044;DHT22;41912;51.022;3.664;2023-02-12T14:08:48;10.70;99.90
56044;DHT22;41912;51.022;3.664;2023-02-12T14:11:17;10.70;99.90
56044;DHT22;41912;51.022;3.664;2023-02-12T14:13:52;10.70;99.90
56044;DHT22;41912;51.022;3.664;2023-02-12T14:16:35;10.70;99.90
56044;DHT22;41912;51.022;3.664;2023-02-12T14:24:52;10.80;99.90
56044;DHT22;41912;51.022;3.664;2023-02-12T14:27:25;10.80;99.90
56044;DHT22;41912;51.022;3.664;2023-02-12T14:30:28;10.80;99.90
56044;DHT22;41912;51.022;3.664;2023-02-12T14:32:57;10.80;99.90
56044;DHT22;41912;51.022;3.664;2023-02-12T14:36:12;10.80;99.90
56044;DHT22;41912;51.022;3.664;2023-02-12T14:41:31;10.80;99.90
56044;DHT22;41912;51.022;3.664;2023-02-12T14:47:00;10.90;99.90
56044;DHT22;41912;51.022;3.664;2023-02-12T14:49:47;10.90;99.90
56044;DHT22;41912;51.022;3.664;2023-02-12T14:52:21;10.80;99.90
56044;DHT22;41912;51.022;3.664;2023-02-12T14:55:07;10.90;99.90
56044;DHT22;41912;51.022;3.664;2023-02-12T14:57:42;10.90;99.90
56044;DHT22;41912;51.022;3.664;2023-02-12T15:05:40;10.90;99.90
56044;DHT22;41912;51.022;3.664;2023-02-12T15:13:45;10.90;99.90
56044;DHT22;41912;51.022;3.664;2023-02-12T15:16:28;10.90;99.90
56044;DHT22;41912;51.022;3.664;2023-02-12T15:19:29;10.80;99.90
56044;DHT22;41912;51.022;3.664;2023-02-12T15:21:56;10.80;99.90
56044;DHT22;41912;51.022;3.664;2023-02-12T15:24:24;10.80;99.90
56044;DHT22;41912;51.022;3.664;2023-02-12T15:26:58;10.80;99.90
56044;DHT22;41912;51.022;3.664;2023-02-12T15:29:26;10.80;99.90
56044;DHT22;41912;51.022;3.664;2023-02-12T15:34:43;10.80;99.90
56044;DHT22;41912;51.022;3.664;2023-02-12T15:37:21;10.80;99.90
56044;DHT22;41912;51.022;3.664;2023-02-12T15:39:47;10.80;99.90
56044;DHT22;41912;51.022;3.664;2023-02-12T15:42:36;10.80;99.90
56044;DHT22;41912;51.022;3.664;2023-02-12T15:50:04;10.70;99.90
56044;DHT22;41912;51.022;3.664;2023-02-12T15:52:36;10.70;99.90
56044;DHT22;41912;51.022;3.664;2023-02-12T15:55:03;10.70;99.90
56044;DHT22;41912;51.022;3.664;2023-02-12T15:57:30;10.70;99.90
56044;DHT22;41912;51.022;3.664;2023-02-12T16:00:15;10.70;99.90
56044;DHT22;41912;51.022;3.664;2023-02-12T16:02:54;10.70;99.90
56044;DHT22;41912;51.022;3.664;2023-02-12T16:05:20;10.70;99.90
56044;DHT22;41912;51.022;3.664;2023-02-12T16:07:46;10.70;99.90
56044;DHT22;41912;51.022;3.664;2023-02-12T16:10:17;10.60;99.90
56044;DHT22;41912;51.022;3.664;2023-02-12T16:22:44;10.60;99.90
56044;DHT22;41912;51.022;3.664;2023-02-12T16:25:31;10.60;99.90
56044;DHT22;41912;51.022;3.664;2023-02-12T16:30:33;10.50;99.90
56044;DHT22;41912;51.022;3.664;2023-02-12T16:33:00;10.50;99.90
56044;DHT22;41912;51.022;3.664;2023-02-12T16:35:30;10.60;99.90
56044;DHT22;41912;51.022;3.664;2023-02-12T16:41:27;10.60;99.90
56044;DHT22;41912;51.022;3.664;2023-02-12T16:46:28;10.50;99.90
56044;DHT22;41912;51.022;3.664;2023-02-12T16:48:56;10.50;99.90
56044;DHT22;41912;51.022;3.664;2023-02-12T16:51:24;10.50;99.90
56044;DHT22;41912;51.022;3.664;2023-02-12T16:53:50;10.50;99.90
56044;DHT22;41912;51.022;3.664;2023-02-12T16:56:20;10.50;99.90
56044;DHT22;41912;51.022;3.664;2023-02-12T16:58:51;10.50;99.90
56044;DHT22;41912;51.022;3.664;2023-02-12T17:04:14;10.50;99.90
56044;DHT22;41912;51.022;3.664;2023-02-12T17:09:06;10.40;99.90
56044;DHT22;41912;51.022;3.664;2023-02-12T17:13:58;10.40;99.90
56044;DHT22;41912;51.022;3.664;2023-02-12T17:16:23;10.40;99.90
56044;DHT22;41912;51.022;3.664;2023-02-12T17:18:49;10.40;99.90
56044;DHT22;41912;51.022;3.664;2023-02-12T17:21:29;10.40;99.90
56044;DHT22;41912;51.022;3.664;2023-02-12T17:23:56;10.40;99.90
56044;DHT22;41912;51.022;3.664;2023-02-12T17:26:23;10.40;99.90
56044;DHT22;41912;51.022;3.664;2023-02-12T17:28:49;10.40;99.90
56044;DHT22;41912;51.022;3.664;2023-02-12T17:31:14;10.30;99.90
56044;DHT22;41912;51.022;3.664;2023-02-12T17:33:40;10.40;99.90
56044;DHT22;41912;51.022;3.664;2023-02-12T17:36:06;10.40;99.90
56044;DHT22;41912;51.022;3.664;2023-02-12T17:38:32;10.40;99.90
56044;DHT22;41912;51.022;3.664;2023-02-12T17:40:58;10.30;99.90
56044;DHT22;41912;51.022;3.664;2023-02-12T17:43:23;10.30;99.90
56044;DHT22;41912;51.022;3.664;2023-02-12T17:45:49;10.30;99.90
56044;DHT22;41912;51.022;3.664;2023-02-12T17:48:15;10.30;99.90
56044;DHT22;41912;51.022;3.664;2023-02-12T17:50:42;10.40;99.90
56044;DHT22;41912;51.022;3.664;2023-02-12T17:53:08;10.40;99.90
56044;DHT22;41912;51.022;3.664;2023-02-12T17:55:38;10.40;99.90
56044;DHT22;41912;51.022;3.664;2023-02-12T17:58:04;10.40;99.90
56044;DHT22;41912;51.022;3.664;2023-02-12T18:00:29;10.40;99.90
56044;DHT22;41912;51.022;3.664;2023-02-12T18:02:55;10.30;99.90
56044;DHT22;41912;51.022;3.664;2023-02-12T18:05:21;10.30;99.90
56044;DHT22;41912;51.022;3.664;2023-02-12T18:07:47;10.30;99.90
56044;DHT22;41912;51.022;3.664;2023-02-12T18:10:13;10.30;99.90
56044;DHT22;41912;51.022;3.664;2023-02-12T18:12:39;10.30;99.90
56044;DHT22;41912;51.022;3.664;2023-02-12T18:15:11;10.30;99.90
56044;DHT22;41912;51.022;3.664;2023-02-12T18:17:41;10.30;99.90
56044;DHT22;41912;51.022;3.664;2023-02-12T18:20:08;10.30;99.90
56044;DHT22;41912;51.022;3.664;2023-02-12T18:22:34;10.30;99.90
56044;DHT22;41912;51.022;3.664;2023-02-12T18:24:59;10.30;99.90
56044;DHT22;41912;51.022;3.664;2023-02-12T18:27:25;10.30;99.90
56044;DHT22;41912;51.022;3.664;2023-02-12T18:29:50;10.30;99.90
56044;DHT22;41912;51.022;3.664;2023-02-12T18:32:21;10.20;99.90
56044;DHT22;41912;51.022;3.664;2023-02-12T18:34:48;10.30;99.90
56044;DHT22;41912;51.022;3.664;2023-02-12T18:37:13;10.30;99.90
56044;DHT22;41912;51.022;3.664;2023-02-12T18:39:39;10.30;99.90
56044;DHT22;41912;51.022;3.664;2023-02-12T18:42:05;10.20;99.90
56044;DHT22;41912;51.022;3.664;2023-02-12T18:44:31;10.30;99.90
56044;DHT22;41912;51.022;3.664;2023-02-12T18:46:56;10.20;99.90
56044;DHT22;41912;51.022;3.664;2023-02-12T18:49:25;10.30;99.90
56044;DHT22;41912;51.022;3.664;2023-02-12T18:54:16;10.20;99.90
56044;DHT22;41912;51.022;3.664;2023-02-12T18:56:43;10.20;99.90
56044;DHT22;41912;51.022;3.664;2023-02-12T18:59:12;10.20;99.90
56044;DHT22;41912;51.022;3.664;2023-02-12T19:01:40;10.20;99.90
56044;DHT22;41912;51.022;3.664;2023-02-12T19:04:07;10.20;99.90
56044;DHT22;41912;51.022;3.664;2023-02-12T19:06:38;10.20;99.90
56044;DHT22;41912;51.022;3.664;2023-02-12T19:09:14;10.20;99.90
56044;DHT22;41912;51.022;3.664;2023-02-12T19:11:42;10.20;99.90
56044;DHT22;41912;51.022;3.664;2023-02-12T19:14:08;10.20;99.90
56044;DHT22;41912;51.022;3.664;2023-02-12T19:16:34;10.20;99.90
56044;DHT22;41912;51.022;3.664;2023-02-12T19:21:30;10.20;99.90
56044;DHT22;41912;51.022;3.664;2023-02-12T19:23:59;10.20;99.90
56044;DHT22;41912;51.022;3.664;2023-02-12T19:26:35;10.20;99.90
56044;DHT22;41912;51.022;3.664;2023-02-12T19:29:01;10.20;99.90
56044;DHT22;41912;51.022;3.664;2023-02-12T19:31:36;10.20;99.90
56044;DHT22;41912;51.022;3.664;2023-02-12T19:34:09;10.20;99.90
56044;DHT22;41912;51.022;3.664;2023-02-12T19:36:56;10.20;99.90